| time (UTC) | temp F | wind direction | speed MPH | gust MPH | rain 1hr in | rain 24hr in | rain mn in | humidity % | barometer mb |
| 20260906200420 | 82 | 180 | 0.0 | 0.0 | 0.00 | 0.00 | 0.00 | 48 | 1036.9 |
| 20260906195422 | 81 | 90 | 0.0 | 0.0 | 0.00 | 0.00 | 0.00 | 48 | 1037.1 |
| 20260906194420 | 82 | 112 | 0.0 | 0.0 | 0.00 | 0.00 | 0.00 | 49 | 1037.1 |
| 20260906193518 | 81 | 112 | 0.0 | 0.0 | 0.00 | 0.00 | 0.00 | 49 | 1037.0 |
| 20260906192519 | 82 | 131 | 0.0 | 2.0 | 0.00 | 0.00 | 0.00 | 48 | 1037.0 |
| 20260906192419 | 82 | 127 | 0.0 | 2.0 | 0.00 | 0.00 | 0.00 | 48 | 1037.0 |
| 20260906190420 | 82 | 180 | 0.0 | 0.0 | 0.00 | 0.00 | 0.00 | 48 | 1037.1 |
| 20260906185420 | 81 | 180 | 0.0 | 0.0 | 0.00 | 0.00 | 0.00 | 48 | 1037.2 |
| 20260906185320 | 81 | 180 | 0.0 | 0.0 | 0.00 | 0.00 | 0.00 | 48 | 1037.3 |
| 20260906184319 | 80 | 90 | 0.0 | 0.0 | 0.00 | 0.00 | 0.00 | 48 | 1037.4 |
| 20260906183319 | 80 | 202 | 0.0 | 1.0 | 0.00 | 0.00 | 0.00 | 47 | 1037.4 |
| 20260906182319 | 80 | 157 | 0.0 | 0.0 | 0.00 | 0.00 | 0.00 | 50 | 1037.4 |
| 20260906182221 | 80 | 157 | 0.0 | 2.0 | 0.00 | 0.00 | 0.00 | 50 | 1037.4 |
| 20260906182119 | 80 | 135 | 1.0 | 3.0 | 0.00 | 0.00 | 0.00 | 50 | 1037.4 |
| 20260906182021 | 81 | 90 | 0.0 | 3.0 | 0.00 | 0.00 | 0.00 | 50 | 1037.4 |
| 20260906181118 | 80 | 180 | 0.0 | 0.0 | 0.00 | 0.00 | 0.00 | 52 | 1037.5 |
| 20260906181018 | 79 | 180 | 0.0 | 0.0 | 0.00 | 0.00 | 0.00 | 52 | 1037.6 |
| 20260906174121 | 78 | 157 | 0.0 | 0.0 | 0.00 | 0.00 | 0.00 | 53 | 1037.7 |
| 20260906174020 | 78 | 157 | 0.0 | 1.0 | 0.00 | 0.00 | 0.00 | 53 | 1037.7 |
| 20260906173919 | 78 | 157 | 0.0 | 2.0 | 0.00 | 0.00 | 0.00 | 53 | 1037.6 |
| 20260906172921 | 77 | 243 | 0.0 | 0.0 | 0.00 | 0.00 | 0.00 | 55 | 1037.6 |
| 20260906172018 | 77 | 177 | 1.0 | 3.0 | 0.00 | 0.00 | 0.00 | 55 | 1037.7 |
| 20260906171021 | 77 | 191 | 0.0 | 3.0 | 0.00 | 0.00 | 0.00 | 56 | 1037.7 |
| 20260906165919 | 76 | 151 | 0.0 | 2.0 | 0.00 | 0.00 | 0.00 | 61 | 1037.9 |
| 20260906164919 | 76 | 101 | 0.0 | 0.0 | 0.00 | 0.00 | 0.00 | 57 | 1038.0 |
| 20260906163919 | 76 | 90 | 0.0 | 0.0 | 0.00 | 0.00 | 0.00 | 62 | 1037.9 |
| 20260906162920 | 75 | 132 | 0.0 | 1.0 | 0.00 | 0.00 | 0.00 | 62 | 1037.8 |
| 20260906162019 | 76 | 236 | 0.0 | 0.0 | 0.00 | 0.00 | 0.00 | 61 | 1037.9 |
| 20260906161919 | 76 | 180 | 0.0 | 0.0 | 0.00 | 0.00 | 0.00 | 62 | 1037.8 |
| 20260906160921 | 75 | 121 | 0.0 | 0.0 | 0.00 | 0.00 | 0.00 | 63 | 1037.9 |
| 20260906160018 | 75 | 180 | 0.0 | 0.0 | 0.00 | 0.00 | 0.00 | 62 | 1037.9 |
| 20260906155019 | 76 | 180 | 0.0 | 0.0 | 0.00 | 0.00 | 0.00 | 61 | 1037.9 |
| 20260906154020 | 76 | 180 | 0.0 | 0.0 | 0.00 | 0.00 | 0.00 | 61 | 1038.0 |
| 20260906153118 | 75 | 81 | 0.0 | 0.0 | 0.00 | 0.00 | 0.00 | 63 | 1037.9 |
| 20260906152121 | 73 | 92 | 0.0 | 0.0 | 0.00 | 0.00 | 0.00 | 65 | 1038.1 |
| 20260906150219 | 74 | 180 | 0.0 | 0.0 | 0.00 | 0.00 | 0.00 | 64 | 1037.8 |
| 20260906150122 | 74 | 209 | 0.0 | 0.0 | 0.00 | 0.00 | 0.00 | 63 | 1037.9 |
| 20260906145220 | 73 | 90 | 0.0 | 0.0 | 0.00 | 0.00 | 0.00 | 65 | 1037.9 |
| 20260906145118 | 73 | 90 | 0.0 | 0.0 | 0.00 | 0.00 | 0.00 | 65 | 1037.9 |
| 20260906144121 | 74 | 180 | 0.0 | 0.0 | 0.00 | 0.00 | 0.00 | 62 | 1037.9 |
| 20260906143021 | 75 | 180 | 0.0 | 0.0 | 0.00 | 0.00 | 0.00 | 61 | 1037.8 |
| 20260906140919 | 77 | 89 | 0.0 | 0.0 | 0.00 | 0.00 | 0.00 | 61 | 1037.7 |
| 20260906135920 | 76 | 270 | 0.0 | 0.0 | 0.00 | 0.00 | 0.00 | 66 | 1037.6 |
| 20260906135020 | 74 | 225 | 0.0 | 0.0 | 0.00 | 0.00 | 0.00 | 68 | 1037.5 |
| 20260906134019 | 72 | 180 | 0.0 | 0.0 | 0.00 | 0.00 | 0.00 | 70 | 1037.5 |
| 20260906133020 | 70 | 360 | 0.0 | 0.0 | 0.00 | 0.00 | 0.00 | 76 | 1037.3 |
| 20260906125221 | 65 | 180 | 0.0 | 0.0 | 0.00 | 0.00 | 0.00 | 85 | 1037.6 |
| 20260906124220 | 63 | 180 | 0.0 | 0.0 | 0.00 | 0.00 | 0.00 | 89 | 1037.5 |
| 20260906123220 | 62 | 180 | 0.0 | 0.0 | 0.00 | 0.00 | 0.00 | 93 | 1037.4 |
| 20260906123120 | 62 | 180 | 0.0 | 0.0 | 0.00 | 0.00 | 0.00 | 92 | 1037.5 |
| 20260906122219 | 62 | 180 | 0.0 | 0.0 | 0.00 | 0.00 | 0.00 | 94 | 1037.4 |
| 20260906121220 | 61 | 180 | 0.0 | 0.0 | 0.00 | 0.00 | 0.00 | 94 | 1037.4 |
| 20260906120219 | 60 | 180 | 0.0 | 0.0 | 0.00 | 0.00 | 0.00 | 94 | 1037.3 |
| 20260906120120 | 60 | 180 | 0.0 | 0.0 | 0.00 | 0.00 | 0.00 | 93 | 1037.3 |
| 20260906115119 | 60 | 180 | 0.0 | 0.0 | 0.00 | 0.00 | 0.00 | 94 | 1037.0 |
| 20260906114120 | 60 | 180 | 0.0 | 0.0 | 0.00 | 0.00 | 0.00 | 93 | 1036.9 |
| 20260906113118 | 59 | 180 | 0.0 | 0.0 | 0.00 | 0.00 | 0.00 | 93 | 1036.9 |
| 20260906112119 | 59 | 180 | 0.0 | 0.0 | 0.00 | 0.00 | 0.00 | 93 | 1036.7 |
| 20260906111119 | 59 | 180 | 0.0 | 0.0 | 0.00 | 0.00 | 0.00 | 93 | 1036.7 |
| 20260906110118 | 59 | 180 | 0.0 | 0.0 | 0.00 | 0.00 | 0.00 | 93 | 1036.5 |
| 20260906105121 | 59 | 180 | 0.0 | 0.0 | 0.00 | 0.00 | 0.00 | 92 | 1036.2 |
| 20260906104120 | 59 | 180 | 0.0 | 0.0 | 0.00 | 0.00 | 0.00 | 93 | 1036.1 |
| 20260906104018 | 59 | 180 | 0.0 | 0.0 | 0.00 | 0.00 | 0.00 | 93 | 1036.1 |
| 20260906103019 | 59 | 180 | 0.0 | 0.0 | 0.00 | 0.00 | 0.00 | 93 | 1036.0 |
| 20260906102021 | 59 | 180 | 0.0 | 0.0 | 0.00 | 0.00 | 0.00 | 93 | 1036.0 |
| 20260906101920 | 59 | 180 | 0.0 | 0.0 | 0.00 | 0.00 | 0.00 | 93 | 1036.0 |
| 20260906100919 | 60 | 180 | 0.0 | 0.0 | 0.00 | 0.00 | 0.00 | 92 | 1035.9 |
| 20260906095921 | 60 | 180 | 0.0 | 0.0 | 0.00 | 0.00 | 0.00 | 92 | 1035.5 |
| 20260906095822 | 60 | 180 | 0.0 | 0.0 | 0.00 | 0.00 | 0.00 | 92 | 1035.6 |
| 20260906094919 | 60 | 180 | 0.0 | 0.0 | 0.00 | 0.00 | 0.00 | 93 | 1035.4 |
| 20260906093921 | 60 | 180 | 0.0 | 0.0 | 0.00 | 0.00 | 0.00 | 92 | 1035.4 |
| 20260906092118 | 60 | 180 | 0.0 | 0.0 | 0.00 | 0.00 | 0.00 | 92 | 1035.1 |
| 20260906091119 | 60 | 180 | 0.0 | 0.0 | 0.00 | 0.00 | 0.00 | 91 | 1035.0 |
| 20260906090121 | 60 | 180 | 0.0 | 0.0 | 0.00 | 0.00 | 0.00 | 91 | 1034.8 |
| 20260906085119 | 60 | 180 | 0.0 | 0.0 | 0.00 | 0.00 | 0.00 | 90 | 1034.9 |
| 20260906084119 | 60 | 180 | 0.0 | 0.0 | 0.00 | 0.00 | 0.00 | 89 | 1035.0 |
| 20260906083121 | 60 | 180 | 0.0 | 0.0 | 0.00 | 0.00 | 0.00 | 90 | 1034.7 |
| 20260906082120 | 60 | 180 | 0.0 | 0.0 | 0.00 | 0.00 | 0.00 | 89 | 1034.7 |
| 20260906081120 | 60 | 180 | 0.0 | 0.0 | 0.00 | 0.00 | 0.00 | 90 | 1034.8 |
| 20260906080119 | 60 | 180 | 0.0 | 0.0 | 0.00 | 0.00 | 0.00 | 89 | 1034.7 |
| 20260906075121 | 61 | 180 | 0.0 | 0.0 | 0.00 | 0.00 | 0.00 | 89 | 1034.5 |
| 20260906074219 | 61 | 180 | 0.0 | 0.0 | 0.00 | 0.00 | 0.00 | 89 | 1034.6 |
| 20260906073220 | 61 | 180 | 0.0 | 0.0 | 0.00 | 0.00 | 0.00 | 89 | 1034.5 |
| 20260906072222 | 61 | 180 | 0.0 | 0.0 | 0.00 | 0.00 | 0.00 | 89 | 1034.5 |
| 20260906071319 | 61 | 180 | 0.0 | 0.0 | 0.00 | 0.00 | 0.00 | 87 | 1034.7 |
| 20260906070320 | 61 | 180 | 0.0 | 0.0 | 0.00 | 0.00 | 0.00 | 88 | 1034.5 |
| 20260906065320 | 61 | 180 | 0.0 | 0.0 | 0.00 | 0.00 | 0.00 | 87 | 1034.6 |
| 20260906064419 | 61 | 180 | 0.0 | 0.0 | 0.00 | 0.00 | 0.00 | 86 | 1034.6 |
| 20260906063518 | 61 | 180 | 0.0 | 0.0 | 0.00 | 0.00 | 0.00 | 87 | 1034.6 |
| 20260906062521 | 61 | 180 | 0.0 | 0.0 | 0.00 | 0.00 | 0.00 | 86 | 1034.7 |
| 20260906061519 | 62 | 180 | 0.0 | 0.0 | 0.00 | 0.00 | 0.00 | 85 | 1034.8 |
| 20260906061421 | 62 | 180 | 0.0 | 0.0 | 0.00 | 0.00 | 0.00 | 84 | 1034.8 |
| 20260906060519 | 62 | 180 | 0.0 | 0.0 | 0.00 | 0.00 | 0.00 | 85 | 1035.1 |
| 20260906055521 | 62 | 180 | 0.0 | 0.0 | 0.00 | 0.00 | 0.00 | 84 | 1035.0 |
| 20260906054521 | 62 | 180 | 0.0 | 0.0 | 0.00 | 0.00 | 0.00 | 84 | 1035.1 |
| 20260906054421 | 62 | 180 | 0.0 | 0.0 | 0.00 | 0.00 | 0.00 | 85 | 1035.1 |
| 20260906053420 | 62 | 180 | 0.0 | 0.0 | 0.00 | 0.00 | 0.00 | 84 | 1035.1 |
| 20260906051520 | 62 | 180 | 0.0 | 0.0 | 0.00 | 0.00 | 0.00 | 84 | 1035.2 |
| 20260906050619 | 63 | 180 | 0.0 | 0.0 | 0.00 | 0.00 | 0.00 | 84 | 1035.2 |
| 20260906045621 | 63 | 180 | 0.0 | 0.0 | 0.00 | 0.00 | 0.00 | 83 | 1035.2 |
| 20260906044719 | 63 | 180 | 0.0 | 0.0 | 0.00 | 0.00 | 0.00 | 82 | 1035.3 |
| 20260906043719 | 63 | 180 | 0.0 | 0.0 | 0.00 | 0.00 | 0.00 | 82 | 1035.2 |
| 20260906042719 | 64 | 180 | 0.0 | 0.0 | 0.00 | 0.00 | 0.00 | 83 | 1035.2 |
| 20260906041719 | 63 | 180 | 0.0 | 0.0 | 0.00 | 0.00 | 0.00 | 82 | 1035.2 |
| 20260906034912 | 63 | 180 | 0.0 | 0.0 | 0.00 | 0.00 | 0.00 | 82 | 1035.0 |
| 20260906033914 | 64 | 180 | 0.0 | 0.0 | 0.00 | 0.00 | 0.00 | 80 | 1035.0 |
| 20260906032914 | 64 | 180 | 0.0 | 0.0 | 0.00 | 0.00 | 0.00 | 80 | 1035.0 |
| 20260906030915 | 64 | 180 | 0.0 | 0.0 | 0.00 | 0.00 | 0.00 | 81 | 1034.8 |
| 20260906024915 | 64 | 180 | 0.0 | 0.0 | 0.00 | 0.00 | 0.00 | 80 | 1034.7 |
| 20260906023015 | 65 | 180 | 0.0 | 0.0 | 0.00 | 0.00 | 0.00 | 80 | 1034.7 |
| 20260906022112 | 65 | 180 | 0.0 | 0.0 | 0.00 | 0.00 | 0.00 | 80 | 1034.6 |
| 20260906021114 | 65 | 180 | 0.0 | 0.0 | 0.00 | 0.00 | 0.00 | 79 | 1034.6 |
| 20260906020113 | 65 | 180 | 0.0 | 0.0 | 0.00 | 0.00 | 0.00 | 79 | 1034.6 |
| 20260906015114 | 66 | 180 | 0.0 | 0.0 | 0.00 | 0.00 | 0.00 | 77 | 1034.6 |
| 20260906014113 | 66 | 180 | 0.0 | 0.0 | 0.00 | 0.00 | 0.00 | 78 | 1034.5 |
| 20260906012114 | 66 | 180 | 0.0 | 0.0 | 0.00 | 0.00 | 0.00 | 77 | 1034.3 |
| 20260906011115 | 67 | 180 | 0.0 | 0.0 | 0.00 | 0.00 | 0.00 | 77 | 1034.2 |
| 20260906005114 | 67 | 180 | 0.0 | 0.0 | 0.00 | 0.00 | 0.00 | 76 | 1034.0 |
| 20260906004115 | 67 | 180 | 0.0 | 0.0 | 0.00 | 0.00 | 0.00 | 75 | 1034.0 |
| 20260906004013 | 67 | 180 | 0.0 | 0.0 | 0.00 | 0.00 | 0.00 | 75 | 1034.0 |
| 20260906003014 | 68 | 180 | 0.0 | 0.0 | 0.00 | 0.00 | 0.00 | 73 | 1033.7 |
| 20260906002913 | 68 | 180 | 0.0 | 0.0 | 0.00 | 0.00 | 0.00 | 72 | 1033.7 |
| 20260906001915 | 68 | 180 | 0.0 | 0.0 | 0.00 | 0.00 | 0.00 | 73 | 1033.6 |
| 20260906001013 | 68 | 180 | 0.0 | 0.0 | 0.00 | 0.00 | 0.00 | 72 | 1033.3 |
| 20260906000014 | 69 | 180 | 0.0 | 0.0 | 0.00 | 0.00 | 0.00 | 72 | 1033.3 |
| 20260905235914 | 69 | 180 | 0.0 | 0.0 | 0.00 | 0.00 | 0.00 | 72 | 1033.3 |
| 20260905235013 | 69 | 180 | 0.0 | 0.0 | 0.00 | 0.00 | 0.00 | 69 | 1033.2 |
| 20260905234016 | 70 | 180 | 0.0 | 0.0 | 0.00 | 0.00 | 0.00 | 68 | 1033.0 |
| 20260905233015 | 71 | 180 | 0.0 | 0.0 | 0.00 | 0.00 | 0.00 | 66 | 1032.9 |
| 20260905232112 | 71 | 180 | 0.0 | 0.0 | 0.00 | 0.00 | 0.00 | 67 | 1033.0 |
| 20260905231114 | 72 | 180 | 0.0 | 0.0 | 0.00 | 0.00 | 0.00 | 66 | 1032.8 |
| 20260905230131 | 72 | 180 | 0.0 | 0.0 | 0.00 | 0.00 | 0.00 | 64 | 1032.8 |
| 20260905225215 | 73 | 180 | 0.0 | 0.0 | 0.00 | 0.00 | 0.00 | 63 | 1032.8 |
| 20260905223313 | 74 | 180 | 0.0 | 0.0 | 0.00 | 0.00 | 0.00 | 60 | 1032.8 |
| 20260905222316 | 74 | 180 | 0.0 | 0.0 | 0.00 | 0.00 | 0.00 | 60 | 1032.7 |
| 20260905221414 | 74 | 180 | 0.0 | 2.0 | 0.00 | 0.00 | 0.00 | 61 | 1032.5 |
| 20260905221314 | 74 | 180 | 0.0 | 0.0 | 0.00 | 0.00 | 0.00 | 61 | 1032.5 |
| 20260905221212 | 74 | 180 | 0.0 | 0.0 | 0.00 | 0.00 | 0.00 | 62 | 1032.5 |
| 20260905220214 | 75 | 180 | 0.0 | 0.0 | 0.00 | 0.00 | 0.00 | 61 | 1032.5 |
| 20260905215129 | 75 | 180 | 0.0 | 0.0 | 0.00 | 0.00 | 0.00 | 59 | 1032.4 |
| 20260905213214 | 76 | 180 | 0.0 | 1.0 | 0.00 | 0.00 | 0.00 | 58 | 1032.5 |
| 20260905212215 | 76 | 202 | 0.0 | 0.0 | 0.00 | 0.00 | 0.00 | 59 | 1032.5 |
| 20260905211215 | 77 | 157 | 0.0 | 0.0 | 0.00 | 0.00 | 0.00 | 58 | 1032.6 |
| 20260905205213 | 78 | 157 | 0.0 | 0.0 | 0.00 | 0.00 | 0.00 | 56 | 1032.3 |
| 20260905204214 | 79 | 157 | 0.0 | 0.0 | 0.00 | 0.00 | 0.00 | 56 | 1032.3 |
| 20260905203312 | 79 | 112 | 0.0 | 0.0 | 0.00 | 0.00 | 0.00 | 56 | 1032.4 |
| 20260905202314 | 77 | 180 | 0.0 | 1.0 | 0.00 | 0.00 | 0.00 | 63 | 1032.4 |
| 20260905201412 | 76 | 90 | 0.0 | 0.0 | 0.00 | 0.00 | 0.00 | 64 | 1032.5 |